createdAt,value
2018-06-29T00:01:44.777Z,24.39
2018-06-29T00:04:13.006Z,24.35
2018-06-29T00:06:40.629Z,24.33
2018-06-29T00:09:08.589Z,24.33
2018-06-29T00:11:36.253Z,24.30
2018-06-29T00:14:04.162Z,24.30
2018-06-29T00:16:32.228Z,24.29
2018-06-29T00:19:00.104Z,24.28
2018-06-29T00:21:28.119Z,24.26
2018-06-29T00:23:55.806Z,24.25
2018-06-29T00:26:23.417Z,24.25
2018-06-29T00:28:51.716Z,24.23
2018-06-29T00:31:19.364Z,24.22
2018-06-29T00:33:47.047Z,24.21
2018-06-29T00:36:15.027Z,24.19
2018-06-29T00:38:43.232Z,24.19
2018-06-29T00:41:11.096Z,24.18
2018-06-29T00:43:39.209Z,24.16
2018-06-29T00:46:07.082Z,24.15
2018-06-29T00:48:34.984Z,24.13
2018-06-29T00:51:02.984Z,24.11
2018-06-29T00:53:30.888Z,24.10
2018-06-29T00:55:59.141Z,24.09
2018-06-29T00:58:26.774Z,24.07
2018-06-29T01:00:54.657Z,24.06
2018-06-29T01:03:22.901Z,24.02
2018-06-29T01:05:50.864Z,24.02
2018-06-29T01:08:18.556Z,24.01
2018-06-29T01:10:46.190Z,23.98
2018-06-29T01:13:13.895Z,23.95
2018-06-29T01:15:41.491Z,23.94
2018-06-29T01:18:09.138Z,23.91
2018-06-29T01:20:37.021Z,23.90
2018-06-29T01:23:04.931Z,23.89
2018-06-29T01:25:32.807Z,23.87
2018-06-29T01:28:00.493Z,23.84
2018-06-29T01:30:28.374Z,23.85
2018-06-29T01:32:56.239Z,23.87
2018-06-29T01:35:24.482Z,23.88
2018-06-29T01:37:52.748Z,23.88
2018-06-29T01:40:20.600Z,23.87
2018-06-29T01:42:48.461Z,23.85
2018-06-29T01:45:16.222Z,23.83
2018-06-29T01:47:44.553Z,23.82
2018-06-29T01:50:12.325Z,23.82
2018-06-29T01:52:40.640Z,23.80
2018-06-29T01:55:08.477Z,23.79
2018-06-29T01:57:36.202Z,23.78
2018-06-29T02:00:03.905Z,23.77
2018-06-29T02:02:32.054Z,23.76
2018-06-29T02:04:59.662Z,23.75
2018-06-29T02:07:27.929Z,23.74
2018-06-29T02:09:55.540Z,23.71
2018-06-29T02:12:23.296Z,23.71
2018-06-29T02:14:51.008Z,23.71
2018-06-29T02:17:18.649Z,23.70
2018-06-29T02:19:47.033Z,23.69
2018-06-29T02:22:14.654Z,23.67
2018-06-29T02:24:42.491Z,23.65
2018-06-29T02:27:10.201Z,23.65
2018-06-29T02:29:38.153Z,23.64
2018-06-29T02:32:06.134Z,23.65
2018-06-29T02:34:34.457Z,23.64
2018-06-29T02:37:02.673Z,23.64
2018-06-29T02:39:30.645Z,23.62
2018-06-29T02:41:58.574Z,23.61
2018-06-29T02:44:26.216Z,23.61
2018-06-29T02:46:53.835Z,23.59
2018-06-29T02:49:22.191Z,23.59
2018-06-29T02:51:50.178Z,23.58
2018-06-29T02:54:18.149Z,23.56
2018-06-29T02:56:45.809Z,23.55
2018-06-29T02:59:14.149Z,23.54
2018-06-29T03:01:42.465Z,23.53
2018-06-29T03:04:10.139Z,23.52
2018-06-29T03:06:37.839Z,23.51
2018-06-29T03:09:07.751Z,23.49
2018-06-29T03:11:35.398Z,23.47
2018-06-29T03:14:03.194Z,23.48
2018-06-29T03:16:30.812Z,23.45
2018-06-29T03:18:58.481Z,23.45
2018-06-29T03:21:26.148Z,23.44
2018-06-29T03:23:53.806Z,23.42
2018-06-29T03:26:21.942Z,23.43
2018-06-29T03:28:49.533Z,23.43
2018-06-29T03:31:17.433Z,23.44
2018-06-29T03:33:45.216Z,23.50
2018-06-29T03:36:13.333Z,23.51
2018-06-29T03:38:40.965Z,23.52
2018-06-29T03:41:08.815Z,23.52
2018-06-29T03:43:36.580Z,23.53
2018-06-29T03:46:04.222Z,23.50
2018-06-29T03:48:32.163Z,23.48
2018-06-29T03:50:59.792Z,23.49
2018-06-29T03:53:27.799Z,23.49
2018-06-29T03:55:55.541Z,23.52
2018-06-29T03:58:23.882Z,23.50
2018-06-29T04:00:52.153Z,23.36
2018-06-29T04:03:20.028Z,23.51
2018-06-29T04:05:47.910Z,23.50
2018-06-29T04:08:20.585Z,23.49
2018-06-29T04:10:48.586Z,23.49
2018-06-29T04:13:16.217Z,23.48
2018-06-29T04:15:45.468Z,23.47
2018-06-29T04:18:13.453Z,23.48
2018-06-29T04:20:41.080Z,23.48
2018-06-29T04:23:08.801Z,23.46
2018-06-29T04:25:36.553Z,23.44
2018-06-29T04:28:04.500Z,23.41
2018-06-29T04:30:32.489Z,23.43
2018-06-29T04:33:00.181Z,23.48
2018-06-29T04:35:28.026Z,23.49
2018-06-29T04:37:55.685Z,23.48
2018-06-29T04:40:23.806Z,23.49
2018-06-29T04:42:51.745Z,23.49
2018-06-29T04:45:19.718Z,23.50
2018-06-29T04:47:47.917Z,23.50
2018-06-29T04:50:15.809Z,23.50
2018-06-29T04:52:43.890Z,23.49
2018-06-29T04:55:12.100Z,23.50
2018-06-29T04:57:40.079Z,23.47
2018-06-29T05:00:07.801Z,23.46
2018-06-29T05:02:35.412Z,23.49
2018-06-29T05:05:03.029Z,23.51
2018-06-29T05:07:30.766Z,23.50
2018-06-29T05:09:58.447Z,23.51
2018-06-29T05:12:28.378Z,23.52
2018-06-29T05:14:56.188Z,23.52
2018-06-29T05:17:24.158Z,23.54
2018-06-29T05:19:51.785Z,23.54
2018-06-29T05:22:19.682Z,23.55
2018-06-29T05:24:47.303Z,23.58
2018-06-29T05:27:14.943Z,23.64
2018-06-29T05:29:42.579Z,23.70
2018-06-29T05:32:10.822Z,23.70
2018-06-29T05:34:38.432Z,23.68
2018-06-29T05:37:06.061Z,23.67
2018-06-29T05:39:34.516Z,23.67
2018-06-29T05:42:02.433Z,23.68
2018-06-29T05:44:30.185Z,23.69
2018-06-29T05:46:57.881Z,23.69
2018-06-29T05:49:25.489Z,23.74
2018-06-29T05:51:53.162Z,23.81
2018-06-29T05:54:21.075Z,23.80
2018-06-29T05:56:48.738Z,23.83
2018-06-29T05:59:17.922Z,23.84
2018-06-29T06:01:45.961Z,23.86
2018-06-29T06:04:14.033Z,23.84
2018-06-29T06:06:41.694Z,23.84
2018-06-29T06:09:11.078Z,23.86
2018-06-29T06:11:39.299Z,23.87
2018-06-29T06:14:07.027Z,23.86
2018-06-29T06:16:34.930Z,23.88
2018-06-29T06:19:14.269Z,23.87
2018-06-29T06:21:41.953Z,23.91
2018-06-29T06:24:09.753Z,23.92
2018-06-29T06:26:37.469Z,23.95
2018-06-29T06:29:05.392Z,23.94
2018-06-29T06:31:33.181Z,23.95
2018-06-29T06:34:00.819Z,23.93
2018-06-29T06:36:28.428Z,23.91
2018-06-29T06:38:56.577Z,23.89
2018-06-29T06:41:24.240Z,23.85
2018-06-29T06:43:52.289Z,23.88
2018-06-29T06:46:19.941Z,23.88
2018-06-29T06:48:48.137Z,23.86
2018-06-29T06:51:15.881Z,23.88
2018-06-29T06:53:43.632Z,23.88
2018-06-29T06:56:11.310Z,23.86
2018-06-29T06:58:39.342Z,23.86
2018-06-29T07:01:07.242Z,23.48
2018-06-29T07:03:34.853Z,23.88
2018-06-29T07:06:02.517Z,23.88
2018-06-29T07:08:30.541Z,23.88
2018-06-29T07:10:58.785Z,23.89
2018-06-29T07:13:26.969Z,23.89
2018-06-29T07:15:54.869Z,23.88
2018-06-29T07:18:22.843Z,23.89
2018-06-29T07:20:50.492Z,23.89
2018-06-29T07:23:18.363Z,23.86
2018-06-29T07:25:46.326Z,23.88
2018-06-29T07:28:14.038Z,23.79
2018-06-29T07:30:41.645Z,23.92
2018-06-29T07:33:09.343Z,23.92
2018-06-29T07:35:37.829Z,23.93
2018-06-29T07:38:05.802Z,23.95
2018-06-29T07:40:33.514Z,23.95
2018-06-29T07:43:01.210Z,23.96
2018-06-29T07:45:29.127Z,23.96
2018-06-29T07:47:57.000Z,23.98
2018-06-29T07:50:24.687Z,23.98
2018-06-29T07:52:52.589Z,23.99
2018-06-29T07:55:20.361Z,24.00
2018-06-29T07:57:48.337Z,24.00
2018-06-29T08:00:15.958Z,24.01
2018-06-29T08:02:43.680Z,24.03
2018-06-29T08:05:11.259Z,24.03
2018-06-29T08:07:39.141Z,24.05
2018-06-29T08:10:07.126Z,24.06
2018-06-29T08:12:35.088Z,24.07
2018-06-29T08:15:02.685Z,24.07
2018-06-29T08:17:30.933Z,24.08
2018-06-29T08:19:58.729Z,24.08
2018-06-29T08:22:26.513Z,24.09
2018-06-29T08:25:06.501Z,24.11
2018-06-29T08:27:34.126Z,24.12
2018-06-29T08:30:02.073Z,24.14
2018-06-29T08:32:30.101Z,24.14
2018-06-29T08:34:57.952Z,24.15
2018-06-29T08:37:25.649Z,24.16
2018-06-29T08:39:53.235Z,24.18
2018-06-29T08:42:20.937Z,24.17
2018-06-29T08:44:48.580Z,24.17
2018-06-29T08:47:16.566Z,24.18
2018-06-29T08:49:44.913Z,24.20
2018-06-29T08:52:12.850Z,24.20
2018-06-29T08:54:40.524Z,24.20
2018-06-29T08:57:08.477Z,24.21
2018-06-29T08:59:36.107Z,24.23
2018-06-29T09:02:03.963Z,24.24
2018-06-29T09:04:31.723Z,24.24
2018-06-29T09:06:59.353Z,24.26
2018-06-29T09:09:27.010Z,24.29
2018-06-29T09:11:54.930Z,24.31
2018-06-29T09:14:22.602Z,24.32
2018-06-29T09:16:50.396Z,24.32
2018-06-29T09:19:18.112Z,24.35
2018-06-29T09:21:45.957Z,24.35
2018-06-29T09:24:14.687Z,24.36
2018-06-29T09:26:42.656Z,24.35
2018-06-29T09:29:10.309Z,24.39
2018-06-29T09:31:38.349Z,24.40
2018-06-29T09:34:05.973Z,24.41
2018-06-29T09:36:33.964Z,24.42
2018-06-29T09:39:01.810Z,24.43
2018-06-29T09:41:29.813Z,24.44
2018-06-29T09:43:58.074Z,24.44
2018-06-29T09:46:25.828Z,24.46
2018-06-29T09:48:53.467Z,24.47
2018-06-29T09:51:21.387Z,24.47
2018-06-29T09:53:49.051Z,24.50
2018-06-29T09:56:17.060Z,24.50
2018-06-29T09:58:44.656Z,24.52
2018-06-29T10:01:12.400Z,24.54
2018-06-29T10:03:40.559Z,24.55
2018-06-29T10:06:08.170Z,24.55
2018-06-29T10:08:35.917Z,24.59
2018-06-29T10:11:03.800Z,24.62
2018-06-29T10:13:31.681Z,24.60
2018-06-29T10:15:59.635Z,24.63
2018-06-29T10:18:27.288Z,24.62
2018-06-29T10:20:54.905Z,24.63
2018-06-29T10:23:22.571Z,24.65
2018-06-29T10:25:50.319Z,24.66
2018-06-29T10:28:18.208Z,24.66
2018-06-29T10:30:46.172Z,24.68
2018-06-29T10:33:13.794Z,24.67
2018-06-29T10:35:41.806Z,24.68
2018-06-29T10:38:09.708Z,24.72
2018-06-29T10:40:37.298Z,24.73
2018-06-29T10:43:05.109Z,24.74
2018-06-29T10:45:32.977Z,24.74
2018-06-29T10:48:00.878Z,24.78
2018-06-29T10:50:28.482Z,24.79
2018-06-29T10:52:56.169Z,24.81
2018-06-29T10:55:23.797Z,24.83
2018-06-29T10:57:51.469Z,24.83
2018-06-29T11:00:19.133Z,24.86
2018-06-29T11:02:47.142Z,24.88
2018-06-29T11:05:14.960Z,24.89
2018-06-29T11:07:42.628Z,24.91
2018-06-29T11:10:10.251Z,24.93
2018-06-29T11:12:37.994Z,24.95
2018-06-29T11:15:06.420Z,24.95
2018-06-29T11:17:34.050Z,24.98
2018-06-29T11:20:02.086Z,25.00
2018-06-29T11:22:30.306Z,25.03
2018-06-29T11:24:57.937Z,25.04
2018-06-29T11:27:26.195Z,25.07
2018-06-29T11:29:54.060Z,25.09
2018-06-29T11:32:21.874Z,25.11
2018-06-29T11:34:50.266Z,25.13
2018-06-29T11:37:18.496Z,25.16
2018-06-29T11:39:46.110Z,25.18
2018-06-29T11:42:13.918Z,25.22
2018-06-29T11:44:41.562Z,25.22
2018-06-29T11:47:09.177Z,25.23
2018-06-29T11:49:37.486Z,25.27
2018-06-29T11:52:05.150Z,25.29
2018-06-29T11:54:32.830Z,25.31
2018-06-29T11:57:00.835Z,25.34
2018-06-29T11:59:28.459Z,25.36
2018-06-29T12:01:56.635Z,25.38
2018-06-29T12:04:24.644Z,25.40
2018-06-29T12:06:52.320Z,25.45
2018-06-29T12:09:20.557Z,25.50
2018-06-29T12:11:48.261Z,25.56
2018-06-29T12:14:15.902Z,25.57
2018-06-29T12:16:43.630Z,25.55
2018-06-29T12:19:11.640Z,25.56
2018-06-29T12:21:39.416Z,25.57
2018-06-29T12:24:07.136Z,25.58
2018-06-29T12:26:34.749Z,25.59
2018-06-29T12:29:02.742Z,25.61
2018-06-29T12:31:30.941Z,25.62
2018-06-29T12:33:58.629Z,25.65
2018-06-29T12:36:26.448Z,25.69
2018-06-29T12:38:54.210Z,25.70
2018-06-29T12:41:22.057Z,25.72
2018-06-29T12:43:49.806Z,25.74
2018-06-29T12:46:17.796Z,25.75
2018-06-29T12:48:45.452Z,25.78
2018-06-29T12:51:13.386Z,25.80
2018-06-29T12:53:41.163Z,25.82
2018-06-29T12:56:08.805Z,25.83
2018-06-29T12:58:36.590Z,25.88
2018-06-29T13:01:04.489Z,25.93
2018-06-29T13:03:32.736Z,25.96
2018-06-29T13:06:00.893Z,25.99
2018-06-29T13:08:28.671Z,26.00
2018-06-29T13:10:56.309Z,25.98
2018-06-29T13:13:23.956Z,26.02
2018-06-29T13:15:51.966Z,26.03
2018-06-29T13:18:19.918Z,26.06
2018-06-29T13:20:49.959Z,26.08
2018-06-29T13:23:17.612Z,26.11
2018-06-29T13:25:45.769Z,26.14
2018-06-29T13:28:13.774Z,26.15
2018-06-29T13:30:41.459Z,26.20
2018-06-29T13:33:09.075Z,26.22
2018-06-29T13:35:36.925Z,26.20
2018-06-29T13:38:04.966Z,26.25
2018-06-29T13:40:32.597Z,26.29
2018-06-29T13:43:00.397Z,26.35
2018-06-29T13:45:28.444Z,26.39
2018-06-29T13:47:56.310Z,26.44
2018-06-29T13:50:23.949Z,26.49
2018-06-29T13:52:51.622Z,26.54
2018-06-29T13:55:19.502Z,26.55
2018-06-29T13:57:47.789Z,26.52
2018-06-29T14:00:15.445Z,26.51
2018-06-29T14:02:43.086Z,26.53
2018-06-29T14:05:11.162Z,26.23
2018-06-29T14:07:38.808Z,26.58
2018-06-29T14:10:07.160Z,26.58
2018-06-29T14:12:34.858Z,26.60
2018-06-29T14:15:02.561Z,26.63
2018-06-29T14:17:30.584Z,26.64
2018-06-29T14:19:58.221Z,26.66
2018-06-29T14:22:26.102Z,26.72
2018-06-29T14:24:54.491Z,26.82
2018-06-29T14:27:22.141Z,27.00
2018-06-29T14:29:50.576Z,27.23
2018-06-29T14:32:18.372Z,27.57
2018-06-29T14:34:46.037Z,28.38
2018-06-29T14:37:13.877Z,29.93
2018-06-29T14:39:41.544Z,31.25
2018-06-29T14:42:09.439Z,32.15
2018-06-29T14:44:37.403Z,32.69
2018-06-29T14:47:05.323Z,33.03
2018-06-29T14:49:33.559Z,32.81
2018-06-29T14:52:01.513Z,32.74
2018-06-29T14:54:29.368Z,31.34
2018-06-29T14:56:57.075Z,30.99
2018-06-29T14:59:25.340Z,31.72
2018-06-29T15:01:52.987Z,31.82
2018-06-29T15:04:20.678Z,31.19
2018-06-29T15:06:48.306Z,30.07
2018-06-29T15:09:16.390Z,29.07
2018-06-29T15:11:44.489Z,28.52
2018-06-29T15:14:12.745Z,28.18
2018-06-29T15:16:40.377Z,27.94
2018-06-29T15:19:08.223Z,27.83
2018-06-29T15:21:36.284Z,27.84
2018-06-29T15:24:04.199Z,27.74
2018-06-29T15:26:32.101Z,27.65
2018-06-29T15:29:00.347Z,27.58
2018-06-29T15:31:28.019Z,27.55
2018-06-29T15:33:55.695Z,27.57
2018-06-29T15:36:23.661Z,27.56
2018-06-29T15:38:51.598Z,27.49
2018-06-29T15:41:19.545Z,27.43
2018-06-29T15:43:48.168Z,27.37
2018-06-29T15:46:15.948Z,27.34
2018-06-29T15:48:43.636Z,27.36
2018-06-29T15:51:11.551Z,27.39
2018-06-29T15:53:39.769Z,27.44
2018-06-29T15:56:07.678Z,27.46
2018-06-29T15:58:35.300Z,27.54
2018-06-29T16:01:03.019Z,27.57
2018-06-29T16:03:31.021Z,27.54
2018-06-29T16:05:58.990Z,27.55
2018-06-29T16:08:27.166Z,27.51
2018-06-29T16:10:55.077Z,27.50
2018-06-29T16:13:22.745Z,27.48
2018-06-29T16:15:50.954Z,27.51
2018-06-29T16:18:18.821Z,27.66
2018-06-29T16:20:46.730Z,27.72
2018-06-29T16:23:14.365Z,27.76
2018-06-29T16:25:41.983Z,27.84
2018-06-29T16:28:10.023Z,28.19
2018-06-29T16:30:37.642Z,28.38
2018-06-29T16:33:05.521Z,28.63
2018-06-29T16:35:33.210Z,28.79
2018-06-29T16:38:01.440Z,28.94
2018-06-29T16:40:29.245Z,29.02
2018-06-29T16:42:56.920Z,29.03
2018-06-29T16:45:25.109Z,29.05
2018-06-29T16:47:53.366Z,29.03
2018-06-29T16:50:21.393Z,28.98
2018-06-29T16:52:49.789Z,29.04
2018-06-29T16:55:17.845Z,29.18
2018-06-29T16:57:45.460Z,29.44
2018-06-29T17:00:13.090Z,29.68
2018-06-29T17:02:41.233Z,29.85
2018-06-29T17:05:09.146Z,29.96
2018-06-29T17:07:36.794Z,30.06
2018-06-29T17:10:04.748Z,30.15
2018-06-29T17:12:33.274Z,30.22
2018-06-29T17:15:01.562Z,30.29
2018-06-29T17:17:29.585Z,30.36
2018-06-29T17:19:57.296Z,30.41
2018-06-29T17:22:24.928Z,30.47
2018-06-29T17:24:52.606Z,30.52
2018-06-29T17:27:20.259Z,30.58
2018-06-29T17:29:47.922Z,30.61
2018-06-29T17:32:15.558Z,30.65
2018-06-29T17:34:43.235Z,30.68
2018-06-29T17:37:10.961Z,30.71
2018-06-29T17:39:38.649Z,30.73
2018-06-29T17:42:06.932Z,30.75
2018-06-29T17:44:34.931Z,30.78
2018-06-29T17:47:03.104Z,30.79
2018-06-29T17:49:30.764Z,30.80
2018-06-29T17:51:58.424Z,30.81
2018-06-29T17:54:26.656Z,30.79
2018-06-29T17:56:54.571Z,30.78
2018-06-29T17:59:22.204Z,30.79
2018-06-29T18:01:49.890Z,30.79
2018-06-29T18:04:17.939Z,30.77
2018-06-29T18:06:45.878Z,30.76
2018-06-29T18:09:13.807Z,30.74
2018-06-29T18:11:41.804Z,30.72
2018-06-29T18:14:11.642Z,30.69
2018-06-29T18:16:39.423Z,30.67
2018-06-29T18:19:07.073Z,30.65
2018-06-29T18:21:35.073Z,30.62
2018-06-29T18:24:02.743Z,30.58
2018-06-29T18:26:30.642Z,30.57
2018-06-29T18:28:58.295Z,30.54
2018-06-29T18:31:26.294Z,30.49
2018-06-29T18:33:53.943Z,30.45
2018-06-29T18:36:21.595Z,30.43
2018-06-29T18:38:49.256Z,30.38
2018-06-29T18:41:17.191Z,30.36
2018-06-29T18:43:45.254Z,30.31
2018-06-29T18:46:13.126Z,30.29
2018-06-29T18:48:42.373Z,30.26
2018-06-29T18:51:10.306Z,30.23
2018-06-29T18:53:38.063Z,30.19
2018-06-29T18:56:05.704Z,30.14
2018-06-29T18:58:33.321Z,30.09
2018-06-29T19:01:01.224Z,30.05
2018-06-29T19:03:28.848Z,30.01
2018-06-29T19:05:58.879Z,29.97
2018-06-29T19:08:26.506Z,29.91
2018-06-29T19:10:54.144Z,29.85
2018-06-29T19:13:22.176Z,29.78
2018-06-29T19:15:49.829Z,29.73
2018-06-29T19:18:17.474Z,29.66
2018-06-29T19:20:45.187Z,29.60
2018-06-29T19:23:12.806Z,29.46
2018-06-29T19:25:40.449Z,29.26
2018-06-29T19:28:08.720Z,29.03
2018-06-29T19:30:36.372Z,28.81
2018-06-29T19:33:04.024Z,28.66
2018-06-29T19:35:32.438Z,28.54
2018-06-29T19:38:00.288Z,28.45
2018-06-29T19:40:28.234Z,28.35
2018-06-29T19:42:56.853Z,28.27
2018-06-29T19:45:24.934Z,28.18
2018-06-29T19:47:52.865Z,28.11
2018-06-29T19:50:20.847Z,28.03
2018-06-29T19:52:48.540Z,27.96
2018-06-29T19:55:16.199Z,27.90
2018-06-29T19:57:44.261Z,27.85
2018-06-29T20:00:11.869Z,27.79
2018-06-29T20:02:39.809Z,27.73
2018-06-29T20:05:08.094Z,27.68
2018-06-29T20:07:35.754Z,27.61
2018-06-29T20:10:03.640Z,27.57
2018-06-29T20:12:31.577Z,27.52
2018-06-29T20:14:59.557Z,27.48
2018-06-29T20:17:27.673Z,27.42
2018-06-29T20:19:55.428Z,27.36
2018-06-29T20:22:23.053Z,27.30
2018-06-29T20:24:50.683Z,27.25
2018-06-29T20:27:18.367Z,27.21
2018-06-29T20:29:46.342Z,27.18
2018-06-29T20:32:14.034Z,27.15
2018-06-29T20:34:41.684Z,27.12
2018-06-29T20:37:09.699Z,27.09
2018-06-29T20:39:37.593Z,27.04
2018-06-29T20:42:05.209Z,27.01
2018-06-29T20:44:32.893Z,26.97
2018-06-29T20:47:00.580Z,26.93
2018-06-29T20:49:28.368Z,26.87
2018-06-29T20:51:56.029Z,26.81
2018-06-29T20:54:24.098Z,26.76
2018-06-29T20:56:51.817Z,26.71
2018-06-29T20:59:19.707Z,26.65
2018-06-29T21:01:47.476Z,26.60
2018-06-29T21:04:15.328Z,26.55
2018-06-29T21:06:43.568Z,26.50
2018-06-29T21:09:12.169Z,26.47
2018-06-29T21:11:40.660Z,26.42
2018-06-29T21:14:08.354Z,26.37
2018-06-29T21:16:36.033Z,26.32
2018-06-29T21:19:03.798Z,26.29
2018-06-29T21:21:31.569Z,26.26
2018-06-29T21:23:59.553Z,26.23
2018-06-29T21:26:27.417Z,26.20
2018-06-29T21:28:55.086Z,26.18
2018-06-29T21:31:23.022Z,26.13
2018-06-29T21:33:50.740Z,26.11
2018-06-29T21:36:19.008Z,26.08
2018-06-29T21:38:47.201Z,26.06
2018-06-29T21:41:14.832Z,26.01
2018-06-29T21:43:42.515Z,25.98
2018-06-29T21:46:10.510Z,25.97
2018-06-29T21:48:38.460Z,25.95
2018-06-29T21:51:06.085Z,25.93
2018-06-29T21:53:34.073Z,25.91
2018-06-29T21:56:01.921Z,25.88
2018-06-29T21:58:29.557Z,25.87
2018-06-29T22:00:57.201Z,25.85
2018-06-29T22:03:25.548Z,25.83
2018-06-29T22:05:53.182Z,25.82
2018-06-29T22:08:21.405Z,25.78
2018-06-29T22:10:49.036Z,25.78
2018-06-29T22:13:16.923Z,25.77
2018-06-29T22:15:44.567Z,25.70
2018-06-29T22:18:12.250Z,25.73
2018-06-29T22:20:40.403Z,25.71
2018-06-29T22:23:08.056Z,25.70
2018-06-29T22:25:35.688Z,25.67
2018-06-29T22:28:03.897Z,25.63
2018-06-29T22:30:31.636Z,25.60
2018-06-29T22:32:59.283Z,25.58
2018-06-29T22:35:27.272Z,25.56
2018-06-29T22:37:55.153Z,25.55
2018-06-29T22:40:23.457Z,25.53
2018-06-29T22:42:51.086Z,25.52
2018-06-29T22:45:19.044Z,25.51
2018-06-29T22:47:46.689Z,25.50
2018-06-29T22:50:14.375Z,25.49
2018-06-29T22:52:42.469Z,25.47
2018-06-29T22:55:10.092Z,25.44
2018-06-29T22:57:38.570Z,25.45
2018-06-29T23:00:06.413Z,25.44
2018-06-29T23:02:34.318Z,25.41
2018-06-29T23:05:02.330Z,25.39
2018-06-29T23:07:29.968Z,25.38
2018-06-29T23:09:57.833Z,25.35
2018-06-29T23:12:25.526Z,25.34
2018-06-29T23:14:53.163Z,25.33
2018-06-29T23:17:21.089Z,25.30
2018-06-29T23:19:48.989Z,25.29
2018-06-29T23:22:16.615Z,25.27
2018-06-29T23:24:44.354Z,25.26
2018-06-29T23:27:11.996Z,25.26
2018-06-29T23:29:39.871Z,25.27
2018-06-29T23:32:07.753Z,25.26
2018-06-29T23:34:35.423Z,25.27
2018-06-29T23:37:03.286Z,25.25
2018-06-29T23:39:31.191Z,25.22
2018-06-29T23:41:59.424Z,25.21
2018-06-29T23:44:27.062Z,25.20
2018-06-29T23:46:54.707Z,25.20
2018-06-29T23:49:22.625Z,25.17
2018-06-29T23:51:50.331Z,25.18
2018-06-29T23:54:17.989Z,25.17
2018-06-29T23:56:45.955Z,25.15
2018-06-29T23:59:13.730Z,25.14
